Asti, California
Current Conditions -  °F | °C
As of 8:53 AM on Thursday 18 Dec 2014 (Local Time) from KSTS Reporting Station
Haze Haze  
Wind Chill: 51°   Ceiling: 1300
Heat Index: 51°   Visibility: 5mi
Dew Point: 49°   Wind: 3mph
Humidity: 92%   Direction: 330°NNW
Pressure: 30.15"   Gusts: NA
Location:  38.7954°N, 123.01°W
Report Text: KSTS 181653Z 33003KT 5SM BR BKN013 OVC019 11/09 A3015 RMK AO2 RAB15E34 SLP202 P0001 T01060094
Loading
Personal Weather Stations






























Interactive Weather Map New forecast layout! Learn more

10-Day Weather Forecast

Advertisements
Track Severe Weather on mobile